createdAt,value
2023-05-07T00:00:47.061Z,11.35
2023-05-07T00:01:46.885Z,11.34
2023-05-07T00:02:46.970Z,11.35
2023-05-07T00:03:46.933Z,11.29
2023-05-07T00:04:46.670Z,11.34
2023-05-07T00:05:46.567Z,11.38
2023-05-07T00:06:46.502Z,11.34
2023-05-07T00:07:46.415Z,11.36
2023-05-07T00:08:46.352Z,11.32
2023-05-07T00:09:46.243Z,11.34
2023-05-07T00:10:46.185Z,11.34
2023-05-07T00:11:46.104Z,11.29
2023-05-07T00:12:46.028Z,11.16
2023-05-07T00:13:45.930Z,11.17
2023-05-07T00:14:45.928Z,11.17
2023-05-07T00:15:45.767Z,11.11
2023-05-07T00:16:45.704Z,11.23
2023-05-07T00:17:45.647Z,11.17
2023-05-07T00:18:45.534Z,11.13
2023-05-07T00:19:45.457Z,11.14
2023-05-07T00:20:45.372Z,11.17
2023-05-07T00:21:45.305Z,11.14
2023-05-07T00:22:45.213Z,11.11
2023-05-07T00:23:45.140Z,11.13
2023-05-07T00:24:45.051Z,11.20
2023-05-07T00:25:44.977Z,11.20
2023-05-07T00:26:44.888Z,11.14
2023-05-07T00:27:44.805Z,11.17
2023-05-07T00:28:44.726Z,11.16
2023-05-07T00:29:44.655Z,11.18
2023-05-07T00:30:44.576Z,11.20
2023-05-07T00:31:44.515Z,11.18
2023-05-07T00:32:44.445Z,11.11
2023-05-07T00:33:44.328Z,11.14
2023-05-07T00:34:44.258Z,11.08
2023-05-07T00:35:44.167Z,11.21
2023-05-07T00:36:44.090Z,11.18
2023-05-07T00:37:44.020Z,11.13
2023-05-07T00:38:43.932Z,11.24
2023-05-07T00:39:43.848Z,11.29
2023-05-07T00:40:43.775Z,11.26
2023-05-07T00:41:43.706Z,11.26
2023-05-07T00:42:43.608Z,11.18
2023-05-07T00:43:43.526Z,11.28
2023-05-07T00:44:43.463Z,11.29
2023-05-07T00:45:43.403Z,11.32
2023-05-07T00:46:43.297Z,11.31
2023-05-07T00:47:43.241Z,11.32
2023-05-07T00:48:43.130Z,11.32
2023-05-07T00:49:43.051Z,11.36
2023-05-07T00:50:42.967Z,11.38
2023-05-07T00:51:42.890Z,11.38
2023-05-07T00:52:42.814Z,11.47
2023-05-07T00:53:42.729Z,11.43
2023-05-07T00:54:42.689Z,11.51
2023-05-07T00:55:42.584Z,11.60
2023-05-07T00:56:42.489Z,11.57
2023-05-07T00:57:42.420Z,11.59
2023-05-07T00:58:42.351Z,11.56
2023-05-07T00:59:42.266Z,11.60
2023-05-07T01:00:42.166Z,11.61
2023-05-07T01:01:42.176Z,11.54
2023-05-07T01:02:42.063Z,11.56
2023-05-07T01:03:41.962Z,11.50
2023-05-07T01:04:41.924Z,11.54
2023-05-07T01:05:41.775Z,11.60
2023-05-07T01:06:41.687Z,11.53
2023-05-07T01:07:41.613Z,11.47
2023-05-07T01:08:41.536Z,11.51
2023-05-07T01:09:41.448Z,11.42
2023-05-07T01:10:41.369Z,11.38
2023-05-07T01:11:41.304Z,11.47
2023-05-07T01:12:41.298Z,11.47
2023-05-07T01:13:41.148Z,11.53
2023-05-07T01:14:41.054Z,11.53
2023-05-07T01:15:40.978Z,11.56
2023-05-07T01:16:40.901Z,11.64
2023-05-07T01:17:40.867Z,11.57
2023-05-07T01:18:40.752Z,11.56
2023-05-07T01:19:40.656Z,11.61
2023-05-07T01:20:40.580Z,11.60
2023-05-07T01:21:40.498Z,11.67
2023-05-07T01:22:40.418Z,11.61
2023-05-07T01:23:40.333Z,11.67
2023-05-07T01:24:40.265Z,11.72
2023-05-07T01:25:40.171Z,11.71
2023-05-07T01:26:40.094Z,11.72
2023-05-07T01:27:40.013Z,11.71
2023-05-07T01:28:40.340Z,11.71
2023-05-07T01:29:39.852Z,11.69
2023-05-07T01:30:39.773Z,11.69
2023-05-07T01:31:39.772Z,11.64
2023-05-07T01:32:39.685Z,11.65
2023-05-07T01:33:39.532Z,11.53
2023-05-07T01:34:39.534Z,11.53
2023-05-07T01:35:39.375Z,11.56
2023-05-07T01:36:39.295Z,11.57
2023-05-07T01:37:39.250Z,11.57
2023-05-07T01:38:39.155Z,11.60
2023-05-07T01:39:39.079Z,11.59
2023-05-07T01:40:38.990Z,11.54
2023-05-07T01:41:38.897Z,11.60
2023-05-07T01:42:38.814Z,11.59
2023-05-07T01:43:38.734Z,11.61
2023-05-07T01:44:38.675Z,11.65
2023-05-07T01:45:38.572Z,11.75
2023-05-07T01:46:38.530Z,11.72
2023-05-07T01:47:38.450Z,11.74
2023-05-07T01:48:38.347Z,11.81
2023-05-07T01:49:38.254Z,11.90
2023-05-07T01:50:38.352Z,11.86
2023-05-07T01:51:38.120Z,11.76
2023-05-07T01:52:38.011Z,11.89
2023-05-07T01:53:37.933Z,11.74
2023-05-07T01:54:37.850Z,11.78
2023-05-07T01:55:37.784Z,11.90
2023-05-07T01:56:37.693Z,11.87
2023-05-07T01:57:37.615Z,11.93
2023-05-07T01:58:37.543Z,11.87
2023-05-07T01:59:37.458Z,11.93
2023-05-07T02:00:37.373Z,11.90
2023-05-07T02:01:37.324Z,11.93
2023-05-07T02:02:37.313Z,11.90
2023-05-07T02:03:37.259Z,11.81
2023-05-07T02:04:37.052Z,11.90
2023-05-07T02:05:36.978Z,11.93
2023-05-07T02:06:37.057Z,11.93
2023-05-07T02:07:36.821Z,11.81
2023-05-07T02:08:36.754Z,11.76
2023-05-07T02:09:36.654Z,11.78
2023-05-07T02:10:36.596Z,11.84
2023-05-07T02:11:36.491Z,11.84
2023-05-07T02:12:36.449Z,11.79
2023-05-07T02:13:36.332Z,11.87
2023-05-07T02:14:36.260Z,11.79
2023-05-07T02:15:36.178Z,11.84
2023-05-07T02:16:36.127Z,11.74
2023-05-07T02:17:36.027Z,11.74
2023-05-07T02:18:35.946Z,11.76
2023-05-07T02:19:35.857Z,11.68
2023-05-07T02:20:35.780Z,11.74
2023-05-07T02:21:35.705Z,11.75
2023-05-07T02:22:35.771Z,11.68
2023-05-07T02:23:35.538Z,11.68
2023-05-07T02:24:35.470Z,11.67
2023-05-07T02:25:35.379Z,11.75
2023-05-07T02:26:35.311Z,11.64
2023-05-07T02:27:35.217Z,11.64
2023-05-07T02:28:35.143Z,11.60
2023-05-07T02:29:35.061Z,11.46
2023-05-07T02:30:34.980Z,11.36
2023-05-07T02:31:34.955Z,11.36
2023-05-07T02:32:34.846Z,11.23
2023-05-07T02:33:34.742Z,11.32
2023-05-07T02:34:34.664Z,11.38
2023-05-07T02:35:34.596Z,11.28
2023-05-07T02:36:34.500Z,11.42
2023-05-07T02:37:34.419Z,11.34
2023-05-07T02:38:34.442Z,11.36
2023-05-07T02:39:34.264Z,11.46
2023-05-07T02:40:34.187Z,11.42
2023-05-07T02:41:34.111Z,11.53
2023-05-07T02:42:34.019Z,11.42
2023-05-07T02:43:33.940Z,11.46
2023-05-07T02:44:33.865Z,11.54
2023-05-07T02:45:33.890Z,11.42
2023-05-07T02:46:33.701Z,11.51
2023-05-07T02:47:33.655Z,11.51
2023-05-07T02:48:33.538Z,11.46
2023-05-07T02:49:33.457Z,11.42
2023-05-07T02:50:33.400Z,11.36
2023-05-07T02:51:33.308Z,11.38
2023-05-07T02:52:33.216Z,11.36
2023-05-07T02:53:33.147Z,11.36
2023-05-07T02:54:33.126Z,11.35
2023-05-07T02:55:32.979Z,11.38
2023-05-07T02:56:32.900Z,11.39
2023-05-07T02:57:32.815Z,11.39
2023-05-07T02:58:32.741Z,11.47
2023-05-07T02:59:32.660Z,11.42
2023-05-07T03:00:32.575Z,11.36
2023-05-07T03:01:32.540Z,11.29
2023-05-07T03:02:32.447Z,11.29
2023-05-07T03:03:32.333Z,11.08
2023-05-07T03:04:32.377Z,11.14
2023-05-07T03:05:32.184Z,11.08
2023-05-07T03:06:32.100Z,11.17
2023-05-07T03:07:32.016Z,11.11
2023-05-07T03:08:31.938Z,11.11
2023-05-07T03:09:31.858Z,11.16
2023-05-07T03:10:31.980Z,11.06
2023-05-07T03:11:31.714Z,11.08
2023-05-07T03:12:31.613Z,11.17
2023-05-07T03:13:31.534Z,11.11
2023-05-07T03:14:31.466Z,11.16
2023-05-07T03:15:31.377Z,11.18
2023-05-07T03:16:31.457Z,11.24
2023-05-07T03:17:31.328Z,11.13
2023-05-07T03:18:31.209Z,11.26
2023-05-07T03:19:31.076Z,11.23
2023-05-07T03:20:31.010Z,11.29
2023-05-07T03:21:30.898Z,11.28
2023-05-07T03:22:30.815Z,11.18
2023-05-07T03:23:30.772Z,11.16
2023-05-07T03:24:30.656Z,11.21
2023-05-07T03:25:30.570Z,11.18
2023-05-07T03:26:30.591Z,11.10
2023-05-07T03:27:30.412Z,11.03
2023-05-07T03:28:30.328Z,11.08
2023-05-07T03:29:30.253Z,11.08
2023-05-07T03:30:30.174Z,11.11
2023-05-07T03:31:30.165Z,11.13
2023-05-07T03:32:30.024Z,11.10
2023-05-07T03:33:29.930Z,11.14
2023-05-07T03:34:29.847Z,11.16
2023-05-07T03:35:29.779Z,11.14
2023-05-07T03:36:29.684Z,11.13
2023-05-07T03:37:29.606Z,11.13
2023-05-07T03:38:29.528Z,11.06
2023-05-07T03:39:29.455Z,11.10
2023-05-07T03:40:29.822Z,11.14
2023-05-07T03:41:29.290Z,11.14
2023-05-07T03:42:29.206Z,11.14
2023-05-07T03:43:29.131Z,11.13
2023-05-07T03:44:29.042Z,11.03
2023-05-07T03:45:28.973Z,11.06
2023-05-07T03:46:28.934Z,11.17
2023-05-07T03:47:28.812Z,11.20
2023-05-07T03:48:28.728Z,11.16
2023-05-07T03:49:28.646Z,11.13
2023-05-07T03:50:28.569Z,11.29
2023-05-07T03:51:28.486Z,11.36
2023-05-07T03:52:28.406Z,11.28
2023-05-07T03:53:28.323Z,11.28
2023-05-07T03:54:28.259Z,11.31
2023-05-07T03:55:28.159Z,11.23
2023-05-07T03:56:28.082Z,11.31
2023-05-07T03:57:28.006Z,11.28
2023-05-07T03:58:27.920Z,11.28
2023-05-07T03:59:27.839Z,11.34
2023-05-07T04:00:27.770Z,11.35
2023-05-07T04:01:27.684Z,11.41
2023-05-07T04:02:27.726Z,11.34
2023-05-07T04:03:27.631Z,11.32
2023-05-07T04:04:27.509Z,11.39
2023-05-07T04:05:27.366Z,11.32
2023-05-07T04:06:27.281Z,11.34
2023-05-07T04:07:27.223Z,11.38
2023-05-07T04:08:27.128Z,11.42
2023-05-07T04:09:27.041Z,11.39
2023-05-07T04:10:26.964Z,11.42
2023-05-07T04:11:26.885Z,11.51
2023-05-07T04:12:26.809Z,11.56
2023-05-07T04:13:26.722Z,11.51
2023-05-07T04:14:26.648Z,11.50
2023-05-07T04:15:26.577Z,11.51
2023-05-07T04:16:26.505Z,11.57
2023-05-07T04:17:26.433Z,11.59
2023-05-07T04:18:26.315Z,11.59
2023-05-07T04:19:26.243Z,11.56
2023-05-07T04:20:26.159Z,11.60
2023-05-07T04:21:26.086Z,11.61
2023-05-07T04:22:25.999Z,11.56
2023-05-07T04:23:25.948Z,11.57
2023-05-07T04:24:25.852Z,11.64
2023-05-07T04:25:25.768Z,11.56
2023-05-07T04:26:25.695Z,11.50
2023-05-07T04:27:25.598Z,11.60
2023-05-07T04:28:25.522Z,11.60
2023-05-07T04:29:25.434Z,11.60
2023-05-07T04:30:25.455Z,11.69
2023-05-07T04:31:25.297Z,11.74
2023-05-07T04:32:25.223Z,11.65
2023-05-07T04:33:25.114Z,11.72
2023-05-07T04:34:25.029Z,11.75
2023-05-07T04:35:24.956Z,11.79
2023-05-07T04:36:24.880Z,11.71
2023-05-07T04:37:24.812Z,11.69
2023-05-07T04:38:24.718Z,11.79
2023-05-07T04:39:24.634Z,11.79
2023-05-07T04:40:24.559Z,11.87
2023-05-07T04:41:24.486Z,11.79
2023-05-07T04:42:24.402Z,11.86
2023-05-07T04:43:24.314Z,11.84
2023-05-07T04:44:24.229Z,11.79
2023-05-07T04:45:24.159Z,11.86
2023-05-07T04:46:24.180Z,11.84
2023-05-07T04:47:24.037Z,11.83
2023-05-07T04:48:23.919Z,11.89
2023-05-07T04:49:23.839Z,11.86
2023-05-07T04:50:23.748Z,11.79
2023-05-07T04:51:23.670Z,11.89
2023-05-07T04:52:24.814Z,11.87
2023-05-07T04:53:23.535Z,11.89
2023-05-07T04:54:23.442Z,11.84
2023-05-07T04:55:23.359Z,11.83
2023-05-07T04:56:23.276Z,11.87
2023-05-07T04:57:23.192Z,11.90
2023-05-07T04:58:23.115Z,11.83
2023-05-07T04:59:23.053Z,11.93
2023-05-07T05:00:22.946Z,12.02
2023-05-07T05:01:22.918Z,11.93
2023-05-07T05:02:22.892Z,12.00
2023-05-07T05:03:22.831Z,11.93
2023-05-07T05:04:22.634Z,11.98
2023-05-07T05:05:22.554Z,12.08
2023-05-07T05:06:22.473Z,12.12
2023-05-07T05:07:22.404Z,12.05
2023-05-07T05:08:22.314Z,12.06
2023-05-07T05:09:22.235Z,12.12
2023-05-07T05:10:24.525Z,12.19
2023-05-07T05:11:22.077Z,12.21
2023-05-07T05:12:22.007Z,12.27
2023-05-07T05:13:22.065Z,12.27
2023-05-07T05:14:21.836Z,12.23
2023-05-07T05:15:21.760Z,12.24
2023-05-07T05:16:21.700Z,12.33
2023-05-07T05:17:21.644Z,12.31
2023-05-07T05:18:21.521Z,12.44
2023-05-07T05:19:21.440Z,12.41
2023-05-07T05:20:21.358Z,12.49
2023-05-07T05:21:21.286Z,12.34
2023-05-07T05:22:21.931Z,12.48
2023-05-07T05:23:21.123Z,12.46
2023-05-07T05:24:21.042Z,12.46
2023-05-07T05:25:20.957Z,12.45
2023-05-07T05:26:20.873Z,12.53
2023-05-07T05:27:20.812Z,12.44
2023-05-07T05:28:20.720Z,12.56
2023-05-07T05:29:20.658Z,12.48
2023-05-07T05:30:21.311Z,12.51
2023-05-07T05:31:20.532Z,12.56
2023-05-07T05:32:20.404Z,12.60
2023-05-07T05:33:20.344Z,12.63
2023-05-07T05:34:20.323Z,12.59
2023-05-07T05:35:20.164Z,12.61
2023-05-07T05:36:20.078Z,12.64
2023-05-07T05:37:20.006Z,12.70
2023-05-07T05:38:19.923Z,12.77
2023-05-07T05:39:19.860Z,12.78
2023-05-07T05:40:19.761Z,12.84
2023-05-07T05:41:19.678Z,12.84
2023-05-07T05:42:19.602Z,12.84
2023-05-07T05:43:19.536Z,12.88
2023-05-07T05:44:19.441Z,13.00
2023-05-07T05:45:19.363Z,12.91
2023-05-07T05:46:19.311Z,12.92
2023-05-07T05:47:19.215Z,12.94
2023-05-07T05:48:19.167Z,13.02
2023-05-07T05:49:19.050Z,13.00
2023-05-07T05:50:19.120Z,13.04
2023-05-07T05:51:18.892Z,13.14
2023-05-07T05:52:18.814Z,13.07
2023-05-07T05:53:18.725Z,13.11
2023-05-07T05:54:18.652Z,13.19
2023-05-07T05:55:18.581Z,13.21
2023-05-07T05:56:18.491Z,13.38
2023-05-07T05:57:18.429Z,13.36
2023-05-07T05:58:18.332Z,13.40
2023-05-07T05:59:18.290Z,13.47
2023-05-07T06:00:18.183Z,13.45
2023-05-07T06:01:18.094Z,13.47
2023-05-07T06:02:18.035Z,13.52
2023-05-07T06:03:17.972Z,13.52
2023-05-07T06:04:17.853Z,13.45
2023-05-07T06:05:17.856Z,13.50
2023-05-07T06:06:17.708Z,13.65
2023-05-07T06:07:17.615Z,13.65
2023-05-07T06:08:17.550Z,13.59
2023-05-07T06:09:17.481Z,13.74
2023-05-07T06:10:17.384Z,13.61
2023-05-07T06:11:17.302Z,13.70
2023-05-07T06:12:17.214Z,13.65
2023-05-07T06:13:17.225Z,13.80
2023-05-07T06:14:17.066Z,13.73
2023-05-07T06:15:16.991Z,13.74
2023-05-07T06:16:16.987Z,13.89
2023-05-07T06:17:17.519Z,13.99
2023-05-07T06:18:16.746Z,13.95
2023-05-07T06:19:16.662Z,13.95
2023-05-07T06:20:16.587Z,14.01
2023-05-07T06:21:16.515Z,14.02
2023-05-07T06:22:16.432Z,14.16
2023-05-07T06:23:17.933Z,14.14
2023-05-07T06:24:16.284Z,14.17
2023-05-07T06:25:16.187Z,14.17
2023-05-07T06:26:16.107Z,14.13
2023-05-07T06:27:16.043Z,14.14
2023-05-07T06:28:15.947Z,14.14
2023-05-07T06:29:15.879Z,14.01
2023-05-07T06:30:15.792Z,14.02
2023-05-07T06:31:15.760Z,14.11
2023-05-07T06:32:15.671Z,14.17
2023-05-07T06:33:15.563Z,14.17
2023-05-07T06:34:15.505Z,14.20
2023-05-07T06:35:15.411Z,14.24
2023-05-07T06:36:15.324Z,14.36
2023-05-07T06:37:15.237Z,14.34
2023-05-07T06:38:15.299Z,14.31
2023-05-07T06:39:15.088Z,14.38
2023-05-07T06:40:15.003Z,14.34
2023-05-07T06:41:14.938Z,14.35
2023-05-07T06:42:14.850Z,14.44
2023-05-07T06:43:14.764Z,14.50
2023-05-07T06:44:14.709Z,14.49
2023-05-07T06:45:14.610Z,14.49
2023-05-07T06:46:14.550Z,14.59
2023-05-07T06:47:16.092Z,14.57
2023-05-07T06:48:14.374Z,14.59
2023-05-07T06:49:14.300Z,14.67
2023-05-07T06:50:14.225Z,14.78
2023-05-07T06:51:14.143Z,14.74
2023-05-07T06:52:14.060Z,14.90
2023-05-07T06:53:13.991Z,14.85
2023-05-07T06:54:13.910Z,14.94
2023-05-07T06:55:13.830Z,15.02
2023-05-07T06:56:13.757Z,15.06
2023-05-07T06:57:13.665Z,15.20
2023-05-07T06:58:13.592Z,15.16
2023-05-07T06:59:13.519Z,15.21
2023-05-07T07:00:13.640Z,15.31
2023-05-07T07:01:13.392Z,15.31
2023-05-07T07:02:13.284Z,15.39
2023-05-07T07:03:13.320Z,15.45
2023-05-07T07:04:13.152Z,15.48
2023-05-07T07:05:13.082Z,15.39
2023-05-07T07:06:12.962Z,15.46
2023-05-07T07:07:12.877Z,15.49
2023-05-07T07:08:12.802Z,15.55
2023-05-07T07:09:12.723Z,15.52
2023-05-07T07:10:12.876Z,15.59
2023-05-07T07:11:12.566Z,15.63
2023-05-07T07:12:12.502Z,15.63
2023-05-07T07:13:12.455Z,15.61
2023-05-07T07:14:12.374Z,15.61
2023-05-07T07:15:12.253Z,15.67
2023-05-07T07:16:12.236Z,15.66
2023-05-07T07:17:12.092Z,15.61
2023-05-07T07:18:12.034Z,15.75
2023-05-07T07:19:11.933Z,15.73
2023-05-07T07:20:12.357Z,15.73
2023-05-07T07:21:11.780Z,15.70
2023-05-07T07:22:11.702Z,15.76
2023-05-07T07:23:11.625Z,15.73
2023-05-07T07:24:11.554Z,15.81
2023-05-07T07:25:11.465Z,15.83
2023-05-07T07:26:11.475Z,15.92
2023-05-07T07:27:11.315Z,15.88
2023-05-07T07:28:11.233Z,15.85
2023-05-07T07:29:11.160Z,15.83
2023-05-07T07:30:11.381Z,15.91
2023-05-07T07:31:11.084Z,15.89
2023-05-07T07:32:10.926Z,15.91
2023-05-07T07:33:10.900Z,15.89
2023-05-07T07:34:10.764Z,15.91
2023-05-07T07:35:10.686Z,15.89
2023-05-07T07:36:10.608Z,15.89
2023-05-07T07:37:10.541Z,15.94
2023-05-07T07:38:10.451Z,16.01
2023-05-07T07:39:10.373Z,16.01
2023-05-07T07:40:10.727Z,16.01
2023-05-07T07:41:10.216Z,16.03
2023-05-07T07:42:10.138Z,16.03
2023-05-07T07:43:10.071Z,16.14
2023-05-07T07:44:09.990Z,16.12
2023-05-07T07:45:09.905Z,16.14
2023-05-07T07:46:09.823Z,16.18
2023-05-07T07:47:09.825Z,16.18
2023-05-07T07:48:09.711Z,16.15
2023-05-07T07:49:09.592Z,16.23
2023-05-07T07:50:09.625Z,16.26
2023-05-07T07:51:09.436Z,16.26
2023-05-07T07:52:09.359Z,16.30
2023-05-07T07:53:09.297Z,16.35
2023-05-07T07:54:09.219Z,16.34
2023-05-07T07:55:09.133Z,16.44
2023-05-07T07:56:09.051Z,16.38
2023-05-07T07:57:08.984Z,16.34
2023-05-07T07:58:08.972Z,16.47
2023-05-07T07:59:08.813Z,16.37
2023-05-07T08:00:08.894Z,16.44
2023-05-07T08:01:08.690Z,16.47
2023-05-07T08:02:08.681Z,16.53
2023-05-07T08:03:08.727Z,16.63
2023-05-07T08:04:08.678Z,16.71
2023-05-07T08:05:08.353Z,16.74
2023-05-07T08:06:08.269Z,16.81
2023-05-07T08:07:08.201Z,16.88
2023-05-07T08:08:08.120Z,16.93
2023-05-07T08:09:08.036Z,16.90
2023-05-07T08:10:07.959Z,17.10
2023-05-07T08:11:07.895Z,17.15
2023-05-07T08:12:07.804Z,17.30
2023-05-07T08:13:07.824Z,17.50
2023-05-07T08:14:07.726Z,17.66
2023-05-07T08:15:07.576Z,17.81
2023-05-07T08:16:07.512Z,17.92
2023-05-07T08:17:07.507Z,18.07
2023-05-07T08:18:07.388Z,18.14
2023-05-07T08:19:07.269Z,18.25
2023-05-07T08:20:07.189Z,18.42
2023-05-07T08:21:07.125Z,18.59
2023-05-07T08:22:07.037Z,18.55
2023-05-07T08:23:06.998Z,18.68
2023-05-07T08:24:06.884Z,18.92
2023-05-07T08:25:06.809Z,18.94
2023-05-07T08:26:06.730Z,18.92
2023-05-07T08:27:06.651Z,19.01
2023-05-07T08:28:09.088Z,19.11
2023-05-07T08:29:06.500Z,19.14
2023-05-07T08:30:06.577Z,19.09
2023-05-07T08:31:06.397Z,19.06
2023-05-07T08:32:06.268Z,19.14
2023-05-07T08:33:06.218Z,19.05
2023-05-07T08:34:07.743Z,19.08
2023-05-07T08:35:06.042Z,19.15
2023-05-07T08:36:05.965Z,19.20
2023-05-07T08:37:05.892Z,19.28
2023-05-07T08:38:05.813Z,19.27
2023-05-07T08:39:05.734Z,19.28
2023-05-07T08:40:07.474Z,19.42
2023-05-07T08:41:05.585Z,19.43
2023-05-07T08:42:05.516Z,19.45
2023-05-07T08:43:05.439Z,19.54
2023-05-07T08:44:05.365Z,19.51
2023-05-07T08:45:05.275Z,19.54
2023-05-07T08:46:06.595Z,19.48
2023-05-07T08:47:05.123Z,19.43
2023-05-07T08:48:05.114Z,19.51
2023-05-07T08:49:04.978Z,19.33
2023-05-07T08:50:04.894Z,19.35
2023-05-07T08:51:04.814Z,19.32
2023-05-07T08:52:04.742Z,19.31
2023-05-07T08:53:04.667Z,19.35
2023-05-07T08:54:04.590Z,19.32
2023-05-07T08:55:04.519Z,19.35
2023-05-07T08:56:04.446Z,19.31
2023-05-07T08:57:04.356Z,19.36
2023-05-07T08:58:04.292Z,19.35
2023-05-07T08:59:04.211Z,19.42
2023-05-07T09:00:04.140Z,19.50
2023-05-07T09:01:04.056Z,19.53
2023-05-07T09:02:04.024Z,19.61
2023-05-07T09:03:03.920Z,19.64
2023-05-07T09:04:03.883Z,19.64
2023-05-07T09:05:03.752Z,19.69
2023-05-07T09:06:03.680Z,19.71
2023-05-07T09:07:03.599Z,19.61
2023-05-07T09:08:03.536Z,19.63
2023-05-07T09:09:03.446Z,19.61
2023-05-07T09:10:03.389Z,19.57
2023-05-07T09:11:03.297Z,19.61
2023-05-07T09:12:03.227Z,19.61
2023-05-07T09:13:03.190Z,19.61
2023-05-07T09:14:03.119Z,19.57
2023-05-07T09:15:03.001Z,19.50
2023-05-07T09:16:02.951Z,19.51
2023-05-07T09:17:02.844Z,19.53
2023-05-07T09:18:02.839Z,19.57
2023-05-07T09:19:02.689Z,19.58
2023-05-07T09:20:02.632Z,19.54
2023-05-07T09:21:02.536Z,19.46
2023-05-07T09:22:02.475Z,19.48
2023-05-07T09:23:02.414Z,19.48
2023-05-07T09:24:02.314Z,19.43
2023-05-07T09:25:02.243Z,19.42
2023-05-07T09:26:02.162Z,19.46
2023-05-07T09:27:02.087Z,19.48
2023-05-07T09:28:02.022Z,19.60
2023-05-07T09:29:01.939Z,19.55
2023-05-07T09:30:01.866Z,19.71
2023-05-07T09:31:01.785Z,19.75
2023-05-07T09:32:01.724Z,19.76
2023-05-07T09:33:01.671Z,19.90
2023-05-07T09:34:01.651Z,19.90
2023-05-07T09:35:01.502Z,19.97
2023-05-07T09:36:01.410Z,19.94
2023-05-07T09:37:01.330Z,19.94
2023-05-07T09:38:03.900Z,19.88
2023-05-07T09:39:01.185Z,19.91
2023-05-07T09:40:01.124Z,19.91
2023-05-07T09:41:01.038Z,19.93
2023-05-07T09:42:00.954Z,20.05
2023-05-07T09:43:00.882Z,20.18
2023-05-07T09:44:00.799Z,20.33
2023-05-07T09:45:01.004Z,20.30
2023-05-07T09:46:00.710Z,20.46
2023-05-07T09:47:00.581Z,20.50
2023-05-07T09:48:00.553Z,20.46
2023-05-07T09:49:00.425Z,20.56
2023-05-07T09:50:00.441Z,20.42
2023-05-07T09:51:00.283Z,20.27
2023-05-07T09:52:00.202Z,20.30
2023-05-07T09:53:00.145Z,20.42
2023-05-07T09:54:00.055Z,20.43
2023-05-07T09:54:59.976Z,20.49
2023-05-07T09:55:59.906Z,20.61
2023-05-07T09:56:59.823Z,20.74
2023-05-07T09:57:59.759Z,20.87
2023-05-07T09:58:59.674Z,20.89
2023-05-07T09:59:59.614Z,20.90
2023-05-07T10:00:59.531Z,20.93
2023-05-07T10:01:59.453Z,21.08
2023-05-07T10:02:59.464Z,21.06
2023-05-07T10:03:59.381Z,21.11
2023-05-07T10:04:59.224Z,21.35
2023-05-07T10:05:59.286Z,21.21
2023-05-07T10:06:59.074Z,21.38
2023-05-07T10:07:59.015Z,21.35
2023-05-07T10:08:58.937Z,21.46
2023-05-07T10:09:58.859Z,21.61
2023-05-07T10:10:58.775Z,21.69
2023-05-07T10:11:58.704Z,21.75
2023-05-07T10:12:58.674Z,21.81
2023-05-07T10:13:58.571Z,21.92
2023-05-07T10:14:58.488Z,21.94
2023-05-07T10:15:58.406Z,22.04
2023-05-07T10:16:58.384Z,22.02
2023-05-07T10:17:58.350Z,21.97
2023-05-07T10:18:58.189Z,21.75
2023-05-07T10:19:58.112Z,21.79
2023-05-07T10:20:58.037Z,21.74
2023-05-07T10:21:58.044Z,21.67
2023-05-07T10:22:57.888Z,21.69
2023-05-07T10:23:57.815Z,21.70
2023-05-07T10:24:57.735Z,21.72
2023-05-07T10:26:01.075Z,21.81
2023-05-07T10:26:57.598Z,21.95
2023-05-07T10:27:57.523Z,22.04
2023-05-07T10:28:57.451Z,22.22
2023-05-07T10:29:57.386Z,22.22
2023-05-07T10:30:57.356Z,22.34
2023-05-07T10:31:57.223Z,22.44
2023-05-07T10:32:57.217Z,22.57
2023-05-07T10:33:57.077Z,22.63
2023-05-07T10:34:57.007Z,22.63
2023-05-07T10:35:56.938Z,22.65
2023-05-07T10:36:56.865Z,22.54
2023-05-07T10:37:56.790Z,22.54
2023-05-07T10:38:56.716Z,22.57
2023-05-07T10:39:56.640Z,22.57
2023-05-07T10:40:56.583Z,22.69
2023-05-07T10:41:56.492Z,22.78
2023-05-07T10:42:56.417Z,22.72
2023-05-07T10:43:56.351Z,22.77
2023-05-07T10:44:56.268Z,22.57
2023-05-07T10:45:56.265Z,22.53
2023-05-07T10:46:56.129Z,22.62
2023-05-07T10:47:56.139Z,22.54
2023-05-07T10:48:55.975Z,22.63
2023-05-07T10:49:55.905Z,22.68
2023-05-07T10:50:55.830Z,22.71
2023-05-07T10:51:55.765Z,22.79
2023-05-07T10:52:55.682Z,22.62
2023-05-07T10:53:55.625Z,22.68
2023-05-07T10:54:55.541Z,22.60
2023-05-07T10:55:55.466Z,22.68
2023-05-07T10:56:55.397Z,22.79
2023-05-07T10:57:55.324Z,22.69
2023-05-07T10:58:55.243Z,22.78
2023-05-07T10:59:56.070Z,22.84
2023-05-07T11:00:55.097Z,22.84
2023-05-07T11:01:55.179Z,22.75
2023-05-07T11:02:54.999Z,22.89
2023-05-07T11:03:54.883Z,22.97
2023-05-07T11:04:54.829Z,23.02
2023-05-07T11:05:54.732Z,23.12
2023-05-07T11:06:54.660Z,23.14
2023-05-07T11:07:54.590Z,23.17
2023-05-07T11:08:54.519Z,23.14
2023-05-07T11:09:54.528Z,23.27
2023-05-07T11:10:54.368Z,23.27
2023-05-07T11:11:54.294Z,23.45
2023-05-07T11:12:54.247Z,23.38
2023-05-07T11:13:54.154Z,23.48
2023-05-07T11:14:54.097Z,23.38
2023-05-07T11:15:54.025Z,23.43
2023-05-07T11:16:53.941Z,23.37
2023-05-07T11:17:53.983Z,23.46
2023-05-07T11:18:53.788Z,23.53
2023-05-07T11:19:53.711Z,23.56
2023-05-07T11:20:53.652Z,23.55
2023-05-07T11:21:53.567Z,23.56
2023-05-07T11:22:54.847Z,23.58
2023-05-07T11:23:53.431Z,23.55
2023-05-07T11:24:53.351Z,23.40
2023-05-07T11:25:53.289Z,23.34
2023-05-07T11:26:53.208Z,23.34
2023-05-07T11:27:53.129Z,23.46
2023-05-07T11:28:53.078Z,23.46
2023-05-07T11:29:52.982Z,23.64
2023-05-07T11:30:52.915Z,23.60
2023-05-07T11:31:53.023Z,23.63
2023-05-07T11:32:52.811Z,23.50
2023-05-07T11:33:52.695Z,23.61
2023-05-07T11:34:52.638Z,23.48
2023-05-07T11:35:52.557Z,23.49
2023-05-07T11:36:52.486Z,23.48
2023-05-07T11:37:52.425Z,23.60
2023-05-07T11:38:52.355Z,23.68
2023-05-07T11:39:52.266Z,23.93
2023-05-07T11:40:52.206Z,23.80
2023-05-07T11:41:53.578Z,23.55
2023-05-07T11:42:52.052Z,23.42
2023-05-07T11:43:51.983Z,23.37
2023-05-07T11:44:51.905Z,23.45
2023-05-07T11:45:51.880Z,23.38
2023-05-07T11:46:51.784Z,23.34
2023-05-07T11:47:51.769Z,23.35
2023-05-07T11:48:51.618Z,23.37
2023-05-07T11:49:51.550Z,23.23
2023-05-07T11:50:51.485Z,23.35
2023-05-07T11:51:51.401Z,23.42
2023-05-07T11:52:51.333Z,23.40
2023-05-07T11:53:51.268Z,23.18
2023-05-07T11:54:51.191Z,23.20
2023-05-07T11:55:51.110Z,23.20
2023-05-07T11:56:51.043Z,23.18
2023-05-07T11:57:50.975Z,23.17
2023-05-07T11:58:50.910Z,23.22
2023-05-07T11:59:50.835Z,23.20
2023-05-07T12:00:50.768Z,23.23
2023-05-07T12:01:50.738Z,23.26
2023-05-07T12:02:50.745Z,23.40
2023-05-07T12:03:50.597Z,23.42
2023-05-07T12:04:50.491Z,23.55
2023-05-07T12:05:50.395Z,23.55
2023-05-07T12:06:50.321Z,23.53
2023-05-07T12:07:50.250Z,23.58
2023-05-07T12:08:50.181Z,23.71
2023-05-07T12:09:50.104Z,23.64
2023-05-07T12:10:50.037Z,23.65
2023-05-07T12:11:49.971Z,23.72
2023-05-07T12:12:49.925Z,23.71
2023-05-07T12:13:49.912Z,23.67
2023-05-07T12:14:49.758Z,23.71
2023-05-07T12:15:49.678Z,23.82
2023-05-07T12:16:49.656Z,23.87
2023-05-07T12:17:49.608Z,23.89
2023-05-07T12:18:49.468Z,23.95
2023-05-07T12:19:49.386Z,23.95
2023-05-07T12:20:49.315Z,23.89
2023-05-07T12:21:49.242Z,23.82
2023-05-07T12:22:49.178Z,23.78
2023-05-07T12:23:49.113Z,23.82
2023-05-07T12:24:49.253Z,23.68
2023-05-07T12:25:48.983Z,23.70
2023-05-07T12:26:48.881Z,23.65
2023-05-07T12:27:48.819Z,23.71
2023-05-07T12:28:48.758Z,23.64
2023-05-07T12:29:48.799Z,23.71
2023-05-07T12:30:48.603Z,23.74
2023-05-07T12:31:48.567Z,23.70
2023-05-07T12:32:48.495Z,23.78
2023-05-07T12:33:48.382Z,23.74
2023-05-07T12:34:48.323Z,23.85
2023-05-07T12:35:48.256Z,23.75
2023-05-07T12:36:48.171Z,23.82
2023-05-07T12:37:48.100Z,23.89
2023-05-07T12:38:48.023Z,24.01
2023-05-07T12:39:47.956Z,23.98
2023-05-07T12:40:47.905Z,24.10
2023-05-07T12:41:47.816Z,24.19
2023-05-07T12:42:47.739Z,24.15
2023-05-07T12:43:47.665Z,24.19
2023-05-07T12:44:47.623Z,24.20
2023-05-07T12:45:47.524Z,24.26
2023-05-07T12:46:47.482Z,24.29
2023-05-07T12:47:47.448Z,24.30
2023-05-07T12:48:47.324Z,24.40
2023-05-07T12:49:47.235Z,24.47
2023-05-07T12:50:47.171Z,24.56
2023-05-07T12:51:47.092Z,24.62